createdAt,value
2023-02-20T00:01:48.332Z,5.25
2023-02-20T00:04:19.090Z,6.90
2023-02-20T00:06:48.578Z,7.55
2023-02-20T00:09:17.653Z,5.38
2023-02-20T00:11:47.143Z,4.57
2023-02-20T00:14:16.496Z,4.22
2023-02-20T00:16:48.651Z,5.82
2023-02-20T00:19:19.086Z,5.97
2023-02-20T00:21:48.643Z,3.05
2023-02-20T00:24:18.084Z,11.18
2023-02-20T00:26:50.520Z,9.85
2023-02-20T00:29:20.194Z,5.00
2023-02-20T00:31:52.454Z,5.57
2023-02-20T00:34:23.474Z,4.13
2023-02-20T00:36:55.159Z,6.55
2023-02-20T00:39:24.455Z,8.68
2023-02-20T00:41:53.672Z,3.97
2023-02-20T00:44:22.914Z,4.95
2023-02-20T00:46:52.335Z,6.53
2023-02-20T00:49:22.993Z,4.22
2023-02-20T00:51:52.496Z,9.23
2023-02-20T00:54:23.447Z,5.60
2023-02-20T00:56:53.821Z,3.30
2023-02-20T00:59:23.139Z,11.07
2023-02-20T01:01:52.619Z,7.55
2023-02-20T01:04:23.591Z,9.20
2023-02-20T01:06:52.810Z,6.40
2023-02-20T01:09:23.383Z,5.60
2023-02-20T01:11:53.001Z,9.20
2023-02-20T01:14:22.939Z,7.43
2023-02-20T01:16:53.600Z,9.13
2023-02-20T01:19:25.298Z,5.55
2023-02-20T01:21:55.546Z,7.00
2023-02-20T01:24:24.975Z,9.15
2023-02-20T01:26:55.314Z,5.55
2023-02-20T01:29:24.688Z,6.82
2023-02-20T01:31:54.450Z,5.10
2023-02-20T01:34:25.032Z,6.18
2023-02-20T01:36:55.312Z,7.28
2023-02-20T01:39:26.481Z,6.47
2023-02-20T01:41:56.687Z,4.38
2023-02-20T01:44:27.480Z,5.68
2023-02-20T01:46:57.190Z,5.18
2023-02-20T01:49:29.944Z,4.53
2023-02-20T01:52:04.093Z,5.28
2023-02-20T01:54:33.364Z,5.85
2023-02-20T01:57:04.475Z,5.22
2023-02-20T01:59:37.257Z,6.53
2023-02-20T02:02:07.611Z,7.90
2023-02-20T02:04:41.626Z,9.07
2023-02-20T02:07:11.903Z,6.22
2023-02-20T02:09:43.356Z,9.50
2023-02-20T02:12:12.354Z,8.45
2023-02-20T02:14:41.463Z,5.40
2023-02-20T02:17:24.834Z,7.32
2023-02-20T02:20:24.078Z,9.75
2023-02-20T02:23:11.085Z,8.38
2023-02-20T02:25:48.306Z,6.35
2023-02-20T02:28:32.682Z,9.30
2023-02-20T02:31:15.876Z,10.43
2023-02-20T02:34:02.916Z,13.13
2023-02-20T02:36:38.792Z,9.48
2023-02-20T02:39:13.987Z,10.77
2023-02-20T02:41:46.256Z,9.63
2023-02-20T02:44:20.292Z,7.38
2023-02-20T02:46:51.914Z,7.03
2023-02-20T02:51:56.458Z,6.55
2023-02-20T02:54:27.607Z,8.20
2023-02-20T02:57:16.639Z,8.17
2023-02-20T02:59:47.584Z,6.75
2023-02-20T03:02:17.401Z,6.22
2023-02-20T03:04:48.278Z,6.75
2023-02-20T03:07:19.780Z,7.50
2023-02-20T03:09:50.337Z,6.65
2023-02-20T03:12:19.812Z,11.02
2023-02-20T03:15:10.337Z,6.80
2023-02-20T03:17:41.513Z,8.90
2023-02-20T03:20:12.496Z,8.75
2023-02-20T03:22:45.205Z,9.27
2023-02-20T03:25:20.017Z,11.07
2023-02-20T03:27:53.819Z,8.05
2023-02-20T03:30:26.242Z,9.52
2023-02-20T03:33:15.325Z,8.20
2023-02-20T03:36:03.382Z,9.15
2023-02-20T03:38:54.062Z,9.52
2023-02-20T03:41:42.793Z,10.35
2023-02-20T03:44:14.513Z,8.90
2023-02-20T03:46:45.087Z,12.07
2023-02-20T03:49:15.152Z,7.50
2023-02-20T03:51:46.883Z,9.38
2023-02-20T03:54:30.595Z,7.28
2023-02-20T03:57:01.495Z,8.82
2023-02-20T03:59:32.131Z,7.77
2023-02-20T04:02:02.914Z,8.82
2023-02-20T04:04:33.412Z,8.27
2023-02-20T04:07:08.214Z,5.18
2023-02-20T04:09:40.797Z,6.68
2023-02-20T04:12:16.264Z,7.80
2023-02-20T04:14:46.851Z,7.65
2023-02-20T04:17:17.297Z,6.63
2023-02-20T04:19:46.351Z,5.85
2023-02-20T04:22:20.676Z,5.50
2023-02-20T04:24:52.763Z,7.80
2023-02-20T04:27:21.938Z,8.02
2023-02-20T04:29:57.032Z,5.28
2023-02-20T04:32:26.869Z,5.18
2023-02-20T04:34:56.178Z,5.63
2023-02-20T04:37:25.362Z,5.88
2023-02-20T04:40:00.118Z,6.13
2023-02-20T04:42:29.953Z,4.80
2023-02-20T04:45:00.241Z,5.68
2023-02-20T04:47:30.474Z,4.65
2023-02-20T04:49:59.451Z,7.63
2023-02-20T04:52:28.312Z,5.30
2023-02-20T04:54:58.122Z,4.20
2023-02-20T04:57:29.094Z,3.83
2023-02-20T04:59:58.118Z,5.82
2023-02-20T05:02:27.123Z,4.78
2023-02-20T05:04:56.094Z,4.28
2023-02-20T05:07:25.080Z,3.42
2023-02-20T05:09:54.120Z,3.83
2023-02-20T05:12:23.043Z,4.47
2023-02-20T05:14:55.558Z,3.40
2023-02-20T05:17:24.690Z,4.40
2023-02-20T05:19:53.647Z,3.20
2023-02-20T05:22:22.754Z,3.85
2023-02-20T05:24:52.589Z,3.60
2023-02-20T05:27:22.368Z,3.20
2023-02-20T05:29:53.860Z,4.70
2023-02-20T05:32:23.507Z,3.67
2023-02-20T05:34:52.444Z,3.50
2023-02-20T05:37:22.350Z,6.50
2023-02-20T05:39:51.390Z,5.20
2023-02-20T05:42:21.543Z,5.03
2023-02-20T05:44:50.798Z,6.57
2023-02-20T05:47:21.368Z,3.70
2023-02-20T05:49:50.291Z,4.03
2023-02-20T05:52:19.210Z,4.18
2023-02-20T05:54:48.856Z,4.32
2023-02-20T05:57:17.847Z,3.60
2023-02-20T05:59:46.758Z,3.28
2023-02-20T06:02:15.774Z,3.65
2023-02-20T06:04:46.529Z,3.25
2023-02-20T06:07:15.503Z,5.80
2023-02-20T06:09:44.660Z,4.20
2023-02-20T06:12:14.848Z,4.55
2023-02-20T06:14:43.978Z,13.38
2023-02-20T06:17:12.961Z,5.40
2023-02-20T06:19:42.366Z,4.53
2023-02-20T06:22:12.752Z,7.07
2023-02-20T06:24:41.892Z,4.25
2023-02-20T06:27:10.923Z,2.63
2023-02-20T06:29:39.891Z,4.13
2023-02-20T06:32:09.300Z,3.65
2023-02-20T06:34:38.390Z,2.88
2023-02-20T06:37:07.764Z,2.42
2023-02-20T06:39:39.382Z,3.30
2023-02-20T06:42:08.436Z,2.65
2023-02-20T06:44:37.574Z,3.28
2023-02-20T06:47:09.188Z,2.45
2023-02-20T06:49:38.495Z,2.60
2023-02-20T06:52:07.948Z,1.98
2023-02-20T06:54:38.512Z,2.88
2023-02-20T06:57:07.583Z,2.10
2023-02-20T06:59:41.460Z,2.80
2023-02-20T07:02:13.279Z,1.88
2023-02-20T07:04:42.251Z,2.10
2023-02-20T07:07:11.216Z,3.30
2023-02-20T07:09:43.610Z,2.65
2023-02-20T07:12:13.994Z,3.22
2023-02-20T07:14:42.937Z,3.80
2023-02-20T07:17:11.912Z,2.60
2023-02-20T07:19:40.929Z,2.28
2023-02-20T07:22:09.981Z,2.75
2023-02-20T07:24:43.549Z,2.80
2023-02-20T07:27:14.035Z,4.53
2023-02-20T07:29:42.968Z,2.67
2023-02-20T07:32:12.065Z,2.85
2023-02-20T07:34:44.615Z,2.60
2023-02-20T07:37:17.772Z,2.38
2023-02-20T07:39:47.076Z,2.17
2023-02-20T07:42:18.629Z,2.13
2023-02-20T07:44:51.518Z,3.30
2023-02-20T07:47:20.840Z,2.40
2023-02-20T07:49:50.038Z,1.90
2023-02-20T07:52:19.038Z,2.67
2023-02-20T07:54:48.288Z,2.33
2023-02-20T07:57:18.784Z,1.90
2023-02-20T07:59:47.636Z,1.33
2023-02-20T08:02:16.717Z,2.33
2023-02-20T08:04:48.304Z,1.95
2023-02-20T08:07:17.487Z,1.23
2023-02-20T08:09:48.537Z,1.85
2023-02-20T08:12:19.011Z,1.52
2023-02-20T08:14:48.414Z,1.70
2023-02-20T08:17:17.391Z,1.10
2023-02-20T08:19:46.365Z,1.88
2023-02-20T08:22:15.446Z,1.40
2023-02-20T08:24:44.663Z,1.38
2023-02-20T08:27:13.723Z,3.13
2023-02-20T08:29:44.302Z,1.60
2023-02-20T08:32:15.311Z,1.50
2023-02-20T08:34:44.533Z,1.13
2023-02-20T08:37:13.616Z,0.80
2023-02-20T08:39:42.773Z,0.75
2023-02-20T08:42:11.863Z,0.80
2023-02-20T08:44:44.130Z,1.40
2023-02-20T08:47:13.248Z,1.63
2023-02-20T08:49:42.444Z,0.93
2023-02-20T08:52:11.619Z,0.45
2023-02-20T08:54:40.786Z,0.90
2023-02-20T08:57:10.224Z,2.45
2023-02-20T08:59:39.972Z,0.70
2023-02-20T09:02:10.985Z,0.90
2023-02-20T09:04:40.167Z,0.90
2023-02-20T09:07:09.559Z,0.60
2023-02-20T09:09:39.009Z,0.80
2023-02-20T09:12:09.066Z,1.05
2023-02-20T09:14:38.315Z,1.13
2023-02-20T09:17:07.960Z,1.63
2023-02-20T09:19:38.410Z,0.73
2023-02-20T09:22:07.586Z,0.75
2023-02-20T09:24:36.996Z,0.90
2023-02-20T09:27:07.394Z,0.57
2023-02-20T09:29:38.998Z,1.30
2023-02-20T09:32:08.323Z,0.73
2023-02-20T09:34:38.923Z,0.80
2023-02-20T09:37:08.623Z,0.80
2023-02-20T09:39:38.012Z,0.95
2023-02-20T09:42:13.414Z,1.02
2023-02-20T09:44:46.994Z,0.80
2023-02-20T09:47:29.593Z,0.90
2023-02-20T09:52:29.365Z,0.60
2023-02-20T09:55:03.283Z,0.80
2023-02-20T09:57:33.551Z,0.40
2023-02-20T10:00:06.698Z,0.90
2023-02-20T10:02:37.529Z,0.80
2023-02-20T10:05:09.393Z,1.08
2023-02-20T10:07:41.982Z,1.05
2023-02-20T10:10:20.409Z,1.90
2023-02-20T10:12:55.289Z,0.80
2023-02-20T10:15:26.352Z,0.60
2023-02-20T10:18:00.174Z,0.93
2023-02-20T10:20:33.561Z,1.45
2023-02-20T10:23:07.112Z,1.63
2023-02-20T10:25:37.997Z,1.48
2023-02-20T10:28:09.218Z,1.27
2023-02-20T10:30:41.530Z,2.33
2023-02-20T10:33:17.683Z,1.60
2023-02-20T10:35:50.705Z,1.02
2023-02-20T10:38:23.676Z,2.13
2023-02-20T10:40:56.122Z,4.25
2023-02-20T10:43:30.681Z,2.45
2023-02-20T10:46:04.861Z,4.90
2023-02-20T10:48:35.077Z,1.30
2023-02-20T10:51:06.955Z,1.00
2023-02-20T10:53:39.874Z,2.30
2023-02-20T10:56:12.480Z,2.72
2023-02-20T10:58:44.309Z,2.88
2023-02-20T11:01:16.220Z,1.38
2023-02-20T11:03:51.773Z,1.70
2023-02-20T11:06:22.603Z,0.68
2023-02-20T11:08:52.948Z,1.95
2023-02-20T11:11:30.896Z,1.33
2023-02-20T11:14:00.830Z,1.85
2023-02-20T11:16:32.769Z,3.28
2023-02-20T11:19:07.412Z,2.63
2023-02-20T11:21:40.512Z,0.98
2023-02-20T11:24:28.177Z,2.28
2023-02-20T11:26:59.027Z,0.50
2023-02-20T11:29:36.546Z,1.85
2023-02-20T11:32:24.295Z,1.90
2023-02-20T11:35:04.485Z,1.02
2023-02-20T11:37:39.991Z,1.60
2023-02-20T11:40:19.058Z,0.80
2023-02-20T11:42:48.051Z,1.15
2023-02-20T11:45:18.418Z,0.50
2023-02-20T11:47:47.367Z,1.20
2023-02-20T11:50:19.920Z,1.35
2023-02-20T11:53:05.765Z,1.15
2023-02-20T11:55:36.306Z,0.95
2023-02-20T11:58:05.931Z,0.98
2023-02-20T12:00:45.702Z,1.77
2023-02-20T12:03:15.817Z,0.60
2023-02-20T12:05:46.110Z,1.50
2023-02-20T12:08:35.809Z,1.13
2023-02-20T12:11:09.009Z,1.20
2023-02-20T12:13:40.398Z,1.80
2023-02-20T12:16:16.159Z,1.23
2023-02-20T12:18:51.311Z,2.40
2023-02-20T12:21:27.289Z,1.77
2023-02-20T12:24:05.125Z,0.90
2023-02-20T12:26:44.986Z,1.00
2023-02-20T12:29:20.999Z,0.75
2023-02-20T12:31:57.648Z,1.85
2023-02-20T12:34:32.392Z,0.63
2023-02-20T12:37:07.221Z,1.48
2023-02-20T12:39:39.941Z,2.42
2023-02-20T12:42:16.081Z,1.33
2023-02-20T12:44:51.109Z,0.77
2023-02-20T12:47:26.233Z,1.60
2023-02-20T12:49:58.715Z,2.03
2023-02-20T12:52:42.799Z,2.20
2023-02-20T12:55:19.374Z,1.05
2023-02-20T12:57:52.434Z,0.82
2023-02-20T13:00:28.320Z,2.45
2023-02-20T13:03:00.561Z,0.60
2023-02-20T13:05:29.785Z,1.92
2023-02-20T13:08:03.905Z,1.20
2023-02-20T13:10:34.648Z,1.00
2023-02-20T13:13:05.788Z,1.10
2023-02-20T13:15:37.686Z,1.00
2023-02-20T13:18:08.838Z,1.50
2023-02-20T13:20:44.530Z,0.80
2023-02-20T13:23:35.056Z,1.83
2023-02-20T13:26:04.576Z,1.02
2023-02-20T13:28:45.936Z,1.20
2023-02-20T13:31:16.638Z,1.92
2023-02-20T13:33:46.273Z,0.80
2023-02-20T13:36:33.343Z,1.05
2023-02-20T13:39:21.870Z,1.80
2023-02-20T13:42:02.456Z,2.28
2023-02-20T13:44:41.690Z,1.50
2023-02-20T13:47:31.616Z,1.73
2023-02-20T13:50:01.559Z,3.30
2023-02-20T13:52:36.427Z,2.90
2023-02-20T13:55:13.961Z,2.38
2023-02-20T13:57:49.648Z,1.00
2023-02-20T14:00:26.778Z,1.60
2023-02-20T14:02:56.323Z,2.08
2023-02-20T14:05:26.666Z,1.65
2023-02-20T14:07:56.048Z,1.10
2023-02-20T14:10:27.317Z,1.40
2023-02-20T14:12:58.442Z,1.92
2023-02-20T14:15:30.315Z,1.13
2023-02-20T14:18:00.155Z,1.23
2023-02-20T14:20:34.607Z,1.23
2023-02-20T14:23:12.211Z,1.77
2023-02-20T14:25:59.837Z,2.38
2023-02-20T14:28:30.083Z,1.20
2023-02-20T14:31:21.234Z,1.70
2023-02-20T14:33:50.917Z,1.50
2023-02-20T14:36:44.860Z,2.60
2023-02-20T14:39:19.930Z,2.53
2023-02-20T14:41:56.247Z,2.33
2023-02-20T14:44:25.630Z,1.45
2023-02-20T14:46:57.213Z,1.50
2023-02-20T14:49:27.602Z,1.55
2023-02-20T14:52:06.328Z,1.67
2023-02-20T14:54:35.586Z,2.28
2023-02-20T14:57:05.843Z,1.75
2023-02-20T14:59:35.853Z,1.90
2023-02-20T15:02:24.194Z,1.63
2023-02-20T15:05:04.032Z,1.75
2023-02-20T15:07:33.429Z,1.23
2023-02-20T15:10:05.104Z,2.25
2023-02-20T15:15:04.979Z,1.70
2023-02-20T15:17:37.686Z,1.67
2023-02-20T15:20:18.315Z,1.35
2023-02-20T15:22:47.559Z,1.92
2023-02-20T15:25:28.320Z,1.88
2023-02-20T15:28:07.778Z,1.65
2023-02-20T15:30:38.070Z,3.35
2023-02-20T15:33:11.298Z,2.13
2023-02-20T15:35:40.582Z,2.15
2023-02-20T15:38:10.346Z,2.45
2023-02-20T15:40:41.487Z,1.70
2023-02-20T15:43:23.987Z,3.05
2023-02-20T15:46:01.953Z,3.25
2023-02-20T15:48:32.378Z,1.83
2023-02-20T15:51:01.466Z,1.33
2023-02-20T15:53:31.908Z,1.67
2023-02-20T15:56:02.746Z,2.33
2023-02-20T15:58:35.435Z,2.90
2023-02-20T16:01:05.184Z,22.35
2023-02-20T16:03:50.494Z,3.42
2023-02-20T16:06:21.077Z,2.85
2023-02-20T16:08:51.065Z,2.90
2023-02-20T16:11:20.794Z,2.55
2023-02-20T16:13:50.768Z,3.13
2023-02-20T16:16:25.192Z,2.65
2023-02-20T16:18:56.263Z,3.67
2023-02-20T16:21:26.108Z,1.63
2023-02-20T16:23:55.764Z,2.13
2023-02-20T16:26:25.925Z,2.13
2023-02-20T16:28:59.741Z,1.83
2023-02-20T16:31:55.194Z,2.22
2023-02-20T16:34:26.505Z,2.78
2023-02-20T16:36:55.765Z,4.43
2023-02-20T16:39:27.181Z,1.83
2023-02-20T16:41:59.868Z,2.55
2023-02-20T16:44:32.249Z,1.80
2023-02-20T16:47:01.739Z,1.83
2023-02-20T16:49:37.387Z,3.75
2023-02-20T16:52:17.548Z,1.80
2023-02-20T16:54:47.404Z,2.17
2023-02-20T16:57:16.543Z,2.40
2023-02-20T16:59:45.827Z,1.70
2023-02-20T17:02:17.577Z,1.85
2023-02-20T17:04:48.499Z,2.72
2023-02-20T17:07:18.040Z,2.10
2023-02-20T17:09:47.174Z,2.88
2023-02-20T17:12:17.113Z,3.47
2023-02-20T17:14:46.508Z,2.35
2023-02-20T17:17:16.393Z,2.40
2023-02-20T17:19:46.051Z,2.67
2023-02-20T17:22:16.739Z,1.63
2023-02-20T17:24:46.265Z,2.88
2023-02-20T17:27:16.319Z,1.80
2023-02-20T17:29:46.692Z,2.35
2023-02-20T17:32:17.766Z,1.83
2023-02-20T17:34:46.923Z,2.50
2023-02-20T17:37:17.357Z,2.65
2023-02-20T17:39:46.596Z,1.85
2023-02-20T17:42:15.533Z,2.65
2023-02-20T17:44:44.718Z,2.75
2023-02-20T17:47:14.556Z,3.85
2023-02-20T17:49:43.627Z,3.00
2023-02-20T17:52:12.760Z,2.53
2023-02-20T17:54:45.812Z,2.78
2023-02-20T17:57:14.967Z,2.58
2023-02-20T17:59:44.183Z,2.55
2023-02-20T18:02:14.963Z,3.40
2023-02-20T18:04:44.846Z,2.45
2023-02-20T18:07:18.072Z,4.07
2023-02-20T18:09:48.603Z,2.75
2023-02-20T18:12:17.910Z,5.07
2023-02-20T18:14:46.853Z,3.83
2023-02-20T18:17:16.032Z,2.33
2023-02-20T18:19:44.995Z,3.92
2023-02-20T18:22:13.853Z,2.72
2023-02-20T18:24:42.833Z,4.30
2023-02-20T18:27:19.891Z,5.53
2023-02-20T18:29:51.889Z,4.05
2023-02-20T18:32:21.189Z,4.38
2023-02-20T18:34:50.191Z,8.60
2023-02-20T18:37:19.285Z,7.32
2023-02-20T18:39:48.346Z,7.40
2023-02-20T18:42:18.739Z,6.82
2023-02-20T18:44:48.164Z,7.95
2023-02-20T18:47:21.810Z,6.72
2023-02-20T18:49:50.841Z,8.93
2023-02-20T18:52:20.444Z,9.73
2023-02-20T18:54:49.401Z,7.38
2023-02-20T18:57:19.846Z,5.93
2023-02-20T18:59:48.863Z,6.53
2023-02-20T19:02:18.084Z,10.63
2023-02-20T19:04:50.232Z,9.73
2023-02-20T19:09:47.961Z,8.63
2023-02-20T19:12:17.324Z,7.10
2023-02-20T19:14:47.596Z,9.52
2023-02-20T19:17:16.527Z,8.43
2023-02-20T19:19:45.791Z,12.20
2023-02-20T19:22:14.718Z,10.02
2023-02-20T19:24:43.860Z,11.90
2023-02-20T19:27:12.850Z,13.60
2023-02-20T19:29:45.649Z,11.05
2023-02-20T19:32:16.145Z,11.85
2023-02-20T19:34:45.401Z,11.32
2023-02-20T19:37:14.408Z,12.23
2023-02-20T19:39:43.994Z,13.63
2023-02-20T19:42:13.950Z,12.38
2023-02-20T19:44:43.259Z,12.32
2023-02-20T19:47:13.560Z,12.48
2023-02-20T19:49:47.536Z,14.35
2023-02-20T19:52:16.920Z,14.88
2023-02-20T19:54:47.008Z,13.95
2023-02-20T19:57:16.311Z,13.48
2023-02-20T19:59:45.154Z,13.98
2023-02-20T20:02:14.476Z,13.20
2023-02-20T20:04:45.333Z,16.27
2023-02-20T20:07:15.631Z,13.65
2023-02-20T20:09:48.329Z,14.95
2023-02-20T20:12:34.925Z,17.40
2023-02-20T20:15:05.800Z,15.10
2023-02-20T20:17:37.683Z,16.10
2023-02-20T20:20:10.519Z,15.60
2023-02-20T20:22:40.884Z,16.10
2023-02-20T20:25:11.927Z,17.38
2023-02-20T20:27:41.249Z,14.35
2023-02-20T20:30:11.573Z,18.83
2023-02-20T20:32:41.465Z,17.75
2023-02-20T20:35:11.066Z,17.58
2023-02-20T20:37:41.589Z,21.13
2023-02-20T20:40:14.280Z,20.23
2023-02-20T20:42:43.372Z,19.08
2023-02-20T20:45:13.543Z,20.63
2023-02-20T20:47:44.222Z,18.52
2023-02-20T20:50:15.224Z,19.17
2023-02-20T20:52:45.791Z,19.75
2023-02-20T20:55:14.936Z,20.13
2023-02-20T20:57:44.083Z,22.30
2023-02-20T21:00:21.140Z,20.17
2023-02-20T21:02:50.580Z,20.65
2023-02-20T21:05:20.339Z,19.02
2023-02-20T21:07:50.862Z,20.30
2023-02-20T21:10:20.934Z,20.48
2023-02-20T21:12:50.117Z,22.00
2023-02-20T21:15:20.219Z,19.30
2023-02-20T21:17:49.320Z,22.20
2023-02-20T21:20:19.524Z,19.48
2023-02-20T21:22:50.572Z,18.70
2023-02-20T21:25:21.624Z,20.73
2023-02-20T21:27:51.988Z,22.90
2023-02-20T21:30:22.087Z,19.58
2023-02-20T21:32:51.175Z,21.35
2023-02-20T21:35:21.587Z,19.95
2023-02-20T21:37:52.506Z,17.77
2023-02-20T21:40:23.236Z,19.30
2023-02-20T21:43:10.003Z,20.15
2023-02-20T21:45:39.298Z,22.38
2023-02-20T21:48:08.608Z,22.65
2023-02-20T21:50:37.938Z,22.50
2023-02-20T21:53:07.340Z,22.45
2023-02-20T21:55:37.922Z,21.58
2023-02-20T21:58:12.287Z,21.60
2023-02-20T22:00:40.441Z,20.85
2023-02-20T22:03:08.444Z,21.55
2023-02-20T22:05:36.263Z,22.85
2023-02-20T22:08:22.985Z,22.45
2023-02-20T22:11:12.539Z,21.58
2023-02-20T22:13:59.541Z,24.13
2023-02-20T22:16:46.079Z,19.75
2023-02-20T22:19:32.670Z,20.38
2023-02-20T22:22:20.552Z,18.85
2023-02-20T22:25:07.191Z,17.38
2023-02-20T22:27:55.371Z,18.48
2023-02-20T22:30:42.132Z,16.75
2023-02-20T22:33:28.853Z,16.52
2023-02-20T22:36:15.451Z,16.48
2023-02-20T22:39:02.585Z,16.10
2023-02-20T22:41:49.396Z,16.35
2023-02-20T22:44:37.410Z,15.02
2023-02-20T22:47:24.194Z,14.10
2023-02-20T22:50:10.631Z,17.45
2023-02-20T22:52:57.394Z,13.82
2023-02-20T22:55:43.969Z,15.23
2023-02-20T22:58:30.369Z,17.85
2023-02-20T23:01:18.297Z,15.15
2023-02-20T23:04:04.813Z,17.35
2023-02-20T23:06:51.300Z,17.70
2023-02-20T23:09:37.786Z,16.85
2023-02-20T23:12:25.057Z,17.58
2023-02-20T23:15:11.577Z,17.08
2023-02-20T23:18:00.754Z,20.02
2023-02-20T23:20:47.543Z,17.92
2023-02-20T23:23:34.577Z,20.40
2023-02-20T23:26:23.810Z,18.95
2023-02-20T23:29:10.465Z,24.98
2023-02-20T23:31:58.156Z,17.17
2023-02-20T23:34:47.219Z,17.23
2023-02-20T23:37:34.441Z,17.83
2023-02-20T23:40:30.888Z,21.40
2023-02-20T23:43:26.218Z,16.75
2023-02-20T23:46:16.345Z,15.80
2023-02-20T23:49:02.847Z,17.40
2023-02-20T23:51:50.988Z,14.77
2023-02-20T23:54:37.600Z,18.35
2023-02-20T23:57:24.175Z,18.15
